createdAt,value
2022-11-13T00:00:57.531Z,32.38
2022-11-13T00:03:25.052Z,37.88
2022-11-13T00:06:04.386Z,32.72
2022-11-13T00:08:31.559Z,34.53
2022-11-13T00:11:10.063Z,29.98
2022-11-13T00:13:37.702Z,28.02
2022-11-13T00:16:07.114Z,27.65
2022-11-13T00:18:37.824Z,25.05
2022-11-13T00:21:11.225Z,28.52
2022-11-13T00:23:38.119Z,27.75
2022-11-13T00:26:10.562Z,30.35
2022-11-13T00:28:37.501Z,27.52
2022-11-13T00:31:05.642Z,31.27
2022-11-13T00:36:26.065Z,27.45
2022-11-13T00:38:54.051Z,23.45
2022-11-13T00:41:20.959Z,29.73
2022-11-13T00:43:47.971Z,31.20
2022-11-13T00:46:14.747Z,27.75
2022-11-13T00:48:41.743Z,24.55
2022-11-13T00:51:08.958Z,29.25
2022-11-13T00:53:35.821Z,32.05
2022-11-13T00:56:02.805Z,28.42
2022-11-13T00:58:30.108Z,27.58
2022-11-13T01:01:08.078Z,30.52
2022-11-13T01:03:35.519Z,27.83
2022-11-13T01:06:13.118Z,31.77
2022-11-13T01:08:40.935Z,30.20
2022-11-13T01:11:13.473Z,29.63
2022-11-13T01:13:41.976Z,22.70
2022-11-13T01:16:10.942Z,25.63
2022-11-13T01:18:38.209Z,29.77
2022-11-13T01:21:15.662Z,30.20
2022-11-13T01:23:43.237Z,32.28
2022-11-13T01:26:13.591Z,26.23
2022-11-13T01:28:44.038Z,34.22
2022-11-13T01:31:14.301Z,25.92
2022-11-13T01:33:41.251Z,31.63
2022-11-13T01:36:26.519Z,27.77
2022-11-13T01:38:53.996Z,30.45
2022-11-13T01:41:30.476Z,22.23
2022-11-13T01:43:58.182Z,30.95
2022-11-13T01:46:38.747Z,27.58
2022-11-13T01:49:08.542Z,28.67
2022-11-13T01:51:57.902Z,27.60
2022-11-13T01:54:31.878Z,28.13
2022-11-13T01:56:59.942Z,31.67
2022-11-13T01:59:32.342Z,24.83
2022-11-13T02:02:00.122Z,30.42
2022-11-13T02:04:27.881Z,36.85
2022-11-13T02:07:00.908Z,29.23
2022-11-13T02:09:36.085Z,29.15
2022-11-13T02:12:05.986Z,34.75
2022-11-13T02:14:33.484Z,31.73
2022-11-13T02:17:04.246Z,32.63
2022-11-13T02:19:38.142Z,32.17
2022-11-13T02:22:17.395Z,26.50
2022-11-13T02:24:48.758Z,30.67
2022-11-13T02:27:29.031Z,29.50
2022-11-13T02:29:56.230Z,30.38
2022-11-13T02:32:23.024Z,26.23
2022-11-13T02:34:49.790Z,26.90
2022-11-13T02:37:16.557Z,28.52
2022-11-13T02:39:43.374Z,26.15
2022-11-13T02:42:10.166Z,26.02
2022-11-13T02:44:36.923Z,25.65
2022-11-13T02:47:04.292Z,25.35
2022-11-13T02:49:31.379Z,29.98
2022-11-13T02:51:58.546Z,24.80
2022-11-13T02:54:25.960Z,25.80
2022-11-13T02:56:53.116Z,27.50
2022-11-13T02:59:20.074Z,26.75
2022-11-13T03:01:48.060Z,27.35
2022-11-13T03:04:14.901Z,24.13
2022-11-13T03:06:42.044Z,25.17
2022-11-13T03:09:09.316Z,25.00
2022-11-13T03:11:36.060Z,27.73
2022-11-13T03:14:02.916Z,29.08
2022-11-13T03:16:29.710Z,27.08
2022-11-13T03:18:57.155Z,30.65
2022-11-13T03:21:24.313Z,27.67
2022-11-13T03:23:51.475Z,26.55
2022-11-13T03:26:18.797Z,26.00
2022-11-13T03:28:45.898Z,25.27
2022-11-13T03:31:13.462Z,24.92
2022-11-13T03:33:40.416Z,34.72
2022-11-13T03:36:07.827Z,25.52
2022-11-13T03:38:34.833Z,24.45
2022-11-13T03:41:02.034Z,28.77
2022-11-13T03:43:28.930Z,29.25
2022-11-13T03:45:55.720Z,30.25
2022-11-13T03:48:22.527Z,31.13
2022-11-13T03:50:52.915Z,26.15
2022-11-13T03:53:20.094Z,33.08
2022-11-13T03:55:47.680Z,26.67
2022-11-13T03:58:14.837Z,27.50
2022-11-13T04:00:42.651Z,23.83
2022-11-13T04:03:09.499Z,29.63
2022-11-13T04:05:36.375Z,31.10
2022-11-13T04:08:03.822Z,30.75
2022-11-13T04:10:31.439Z,31.08
2022-11-13T04:12:58.280Z,32.83
2022-11-13T04:15:25.233Z,22.38
2022-11-13T04:17:51.948Z,31.75
2022-11-13T04:20:18.889Z,28.48
2022-11-13T04:22:45.661Z,28.17
2022-11-13T04:25:12.846Z,28.55
2022-11-13T04:27:39.623Z,29.52
2022-11-13T04:30:07.061Z,27.23
2022-11-13T04:32:33.945Z,26.63
2022-11-13T04:35:00.761Z,26.88
2022-11-13T04:37:27.586Z,26.67
2022-11-13T04:39:54.516Z,30.52
2022-11-13T04:42:39.973Z,29.27
2022-11-13T04:45:07.683Z,32.60
2022-11-13T04:47:34.706Z,28.13
2022-11-13T04:50:02.251Z,22.02
2022-11-13T04:52:29.055Z,26.10
2022-11-13T04:54:56.265Z,29.88
2022-11-13T04:57:23.271Z,37.92
2022-11-13T04:59:50.200Z,32.25
2022-11-13T05:02:17.096Z,32.55
2022-11-13T05:04:43.869Z,29.48
2022-11-13T05:07:11.429Z,27.92
2022-11-13T05:09:38.274Z,28.60
2022-11-13T05:12:07.984Z,33.78
2022-11-13T05:14:40.044Z,33.67
2022-11-13T05:17:09.923Z,31.73
2022-11-13T05:19:37.640Z,31.98
2022-11-13T05:22:05.214Z,27.92
2022-11-13T05:24:32.413Z,33.25
2022-11-13T05:26:59.196Z,36.00
2022-11-13T05:29:26.036Z,30.10
2022-11-13T05:31:52.769Z,29.92
2022-11-13T05:34:19.523Z,31.17
2022-11-13T05:36:46.316Z,26.20
2022-11-13T05:39:13.081Z,32.38
2022-11-13T05:41:39.933Z,33.85
2022-11-13T05:44:06.673Z,31.88
2022-11-13T05:46:33.516Z,35.30
2022-11-13T05:49:01.953Z,30.20
2022-11-13T05:51:31.599Z,40.30
2022-11-13T05:53:59.021Z,27.23
2022-11-13T05:56:34.560Z,34.10
2022-11-13T05:59:03.554Z,29.50
2022-11-13T06:01:34.004Z,30.40
2022-11-13T06:04:02.005Z,34.05
2022-11-13T06:06:30.440Z,33.00
2022-11-13T06:08:59.057Z,32.95
2022-11-13T06:11:28.357Z,33.78
2022-11-13T06:13:55.986Z,31.95
2022-11-13T06:16:25.850Z,33.40
2022-11-13T06:18:56.982Z,30.02
2022-11-13T06:21:26.309Z,36.53
2022-11-13T06:23:53.122Z,36.30
2022-11-13T06:26:26.512Z,38.30
2022-11-13T06:28:53.484Z,36.85
2022-11-13T06:31:23.464Z,29.40
2022-11-13T06:33:50.749Z,32.80
2022-11-13T06:36:24.928Z,37.47
2022-11-13T06:38:52.495Z,37.25
2022-11-13T06:41:21.722Z,39.30
2022-11-13T06:43:49.248Z,34.78
2022-11-13T06:46:19.325Z,34.42
2022-11-13T06:48:46.912Z,31.42
2022-11-13T06:51:16.906Z,31.45
2022-11-13T06:53:44.025Z,32.95
2022-11-13T06:56:11.717Z,35.47
2022-11-13T06:58:39.174Z,40.40
2022-11-13T07:01:11.878Z,35.05
2022-11-13T07:03:39.187Z,29.67
2022-11-13T07:06:08.539Z,35.15
2022-11-13T07:08:36.236Z,35.78
2022-11-13T07:11:03.083Z,37.95
2022-11-13T07:13:29.950Z,37.17
2022-11-13T07:16:09.295Z,40.60
2022-11-13T07:18:42.893Z,34.67
2022-11-13T07:21:11.837Z,34.05
2022-11-13T07:23:43.498Z,35.58
2022-11-13T07:26:11.736Z,36.22
2022-11-13T07:28:39.466Z,38.83
2022-11-13T07:31:06.779Z,40.85
2022-11-13T07:33:33.799Z,38.17
2022-11-13T07:36:00.734Z,38.00
2022-11-13T07:38:27.801Z,38.75
2022-11-13T07:40:57.182Z,42.55
2022-11-13T07:43:24.408Z,40.50
2022-11-13T07:45:54.653Z,38.47
2022-11-13T07:48:22.628Z,48.10
2022-11-13T07:50:49.882Z,41.83
2022-11-13T07:53:17.960Z,48.97
2022-11-13T07:55:45.193Z,42.25
2022-11-13T07:58:12.256Z,47.13
2022-11-13T08:00:40.161Z,43.30
2022-11-13T08:03:09.919Z,43.22
2022-11-13T08:05:37.326Z,36.67
2022-11-13T08:08:04.320Z,43.75
2022-11-13T08:10:31.794Z,41.65
2022-11-13T08:13:04.198Z,52.55
2022-11-13T08:15:31.764Z,40.80
2022-11-13T08:18:00.415Z,42.15
2022-11-13T08:20:29.366Z,49.25
2022-11-13T08:23:04.504Z,42.45
2022-11-13T08:25:33.787Z,48.38
2022-11-13T08:28:01.088Z,37.05
2022-11-13T08:30:29.231Z,37.67
2022-11-13T08:32:56.142Z,40.33
2022-11-13T08:35:29.184Z,46.25
2022-11-13T08:38:02.597Z,39.05
2022-11-13T08:40:30.128Z,39.25
2022-11-13T08:43:03.944Z,40.17
2022-11-13T08:45:31.788Z,34.28
2022-11-13T08:48:02.945Z,40.88
2022-11-13T08:50:31.380Z,40.17
2022-11-13T08:53:00.361Z,41.42
2022-11-13T08:55:27.973Z,39.08
2022-11-13T08:57:57.820Z,38.75
2022-11-13T09:00:25.074Z,42.63
2022-11-13T09:02:56.654Z,48.03
2022-11-13T09:05:24.562Z,38.22
2022-11-13T09:07:52.031Z,37.65
2022-11-13T09:10:19.103Z,33.60
2022-11-13T09:12:45.919Z,33.47
2022-11-13T09:15:13.318Z,36.35
2022-11-13T09:17:40.292Z,43.22
2022-11-13T09:20:11.214Z,39.63
2022-11-13T09:22:40.558Z,36.55
2022-11-13T09:25:07.848Z,39.50
2022-11-13T09:27:34.975Z,32.40
2022-11-13T09:30:01.834Z,33.95
2022-11-13T09:32:29.306Z,41.13
2022-11-13T09:34:59.181Z,33.47
2022-11-13T09:37:26.309Z,44.25
2022-11-13T09:39:53.524Z,43.58
2022-11-13T09:42:27.551Z,43.13
2022-11-13T09:45:07.285Z,43.30
2022-11-13T09:47:39.455Z,40.03
2022-11-13T09:50:17.663Z,41.20
2022-11-13T09:52:46.001Z,50.10
2022-11-13T09:55:16.798Z,40.10
2022-11-13T09:57:57.919Z,37.20
2022-11-13T10:00:24.792Z,48.50
2022-11-13T10:03:46.630Z,36.15
2022-11-13T10:06:41.885Z,34.90
2022-11-13T10:09:37.818Z,41.67
2022-11-13T10:12:08.526Z,41.28
2022-11-13T10:14:44.157Z,43.63
2022-11-13T10:17:38.591Z,38.65
2022-11-13T10:20:16.095Z,51.78
2022-11-13T10:23:01.640Z,37.50
2022-11-13T10:25:35.059Z,38.35
2022-11-13T10:28:35.077Z,54.30
2022-11-13T10:31:40.059Z,40.67
2022-11-13T10:34:07.077Z,36.38
2022-11-13T10:36:50.182Z,33.22
2022-11-13T10:39:16.980Z,39.72
2022-11-13T10:41:51.613Z,36.92
2022-11-13T10:44:25.532Z,29.33
2022-11-13T10:47:04.764Z,37.40
2022-11-13T10:49:31.610Z,39.60
2022-11-13T10:52:02.225Z,31.50
2022-11-13T10:54:31.230Z,39.15
2022-11-13T10:57:16.917Z,45.10
2022-11-13T10:59:45.867Z,45.33
2022-11-13T11:02:22.987Z,42.00
2022-11-13T11:04:49.892Z,39.33
2022-11-13T11:07:21.525Z,31.27
2022-11-13T11:09:51.310Z,44.28
2022-11-13T11:12:30.216Z,43.45
2022-11-13T11:15:01.386Z,42.72
2022-11-13T11:17:39.720Z,34.95
2022-11-13T11:20:23.903Z,40.45
2022-11-13T11:22:59.940Z,40.78
2022-11-13T11:25:41.590Z,42.13
2022-11-13T11:28:31.593Z,31.27
2022-11-13T11:31:05.594Z,46.88
2022-11-13T11:33:36.887Z,48.63
2022-11-13T11:36:32.533Z,35.45
2022-11-13T11:39:16.167Z,39.33
2022-11-13T11:42:16.049Z,43.60
2022-11-13T11:44:53.208Z,50.08
2022-11-13T11:47:20.138Z,50.17
2022-11-13T11:49:47.239Z,40.97
2022-11-13T11:52:32.920Z,39.15
2022-11-13T11:55:41.229Z,32.67
2022-11-13T11:58:35.186Z,39.97
2022-11-13T12:01:16.173Z,36.55
2022-11-13T12:04:01.513Z,38.70
2022-11-13T12:06:48.271Z,34.88
2022-11-13T12:09:27.829Z,44.15
2022-11-13T12:12:03.955Z,38.60
2022-11-13T12:14:52.863Z,32.80
2022-11-13T12:17:22.735Z,34.35
2022-11-13T12:20:03.281Z,40.00
2022-11-13T12:22:43.431Z,37.75
2022-11-13T12:25:13.977Z,36.15
2022-11-13T12:27:47.159Z,34.03
2022-11-13T12:30:20.917Z,43.17
2022-11-13T12:33:03.107Z,36.80
2022-11-13T12:35:30.477Z,31.40
2022-11-13T12:38:03.211Z,25.33
2022-11-13T12:40:57.855Z,38.92
2022-11-13T12:43:31.240Z,36.85
2022-11-13T12:46:12.328Z,35.58
2022-11-13T12:48:43.937Z,38.55
2022-11-13T12:51:17.243Z,37.03
2022-11-13T12:53:50.209Z,35.78
2022-11-13T12:56:27.905Z,41.08
2022-11-13T12:59:29.155Z,40.22
2022-11-13T13:02:09.246Z,33.00
2022-11-13T13:05:26.562Z,33.65
2022-11-13T13:08:28.401Z,36.85
2022-11-13T13:11:22.019Z,40.25
2022-11-13T13:14:26.937Z,40.08
2022-11-13T13:17:13.685Z,36.67
2022-11-13T13:19:41.068Z,32.80
2022-11-13T13:22:23.876Z,32.53
2022-11-13T13:25:17.711Z,35.72
2022-11-13T13:27:55.495Z,44.58
2022-11-13T13:30:27.039Z,39.28
2022-11-13T13:33:15.293Z,32.80
2022-11-13T13:36:00.627Z,28.67
2022-11-13T13:38:35.164Z,33.95
2022-11-13T13:41:35.256Z,38.35
2022-11-13T13:44:11.075Z,35.80
2022-11-13T13:46:37.904Z,42.80
2022-11-13T13:49:14.602Z,43.90
2022-11-13T13:51:45.363Z,40.75
2022-11-13T13:54:26.460Z,38.15
2022-11-13T13:56:56.979Z,31.60
2022-11-13T13:59:32.907Z,38.92
2022-11-13T14:02:13.640Z,39.38
2022-11-13T14:04:54.503Z,45.47
2022-11-13T14:07:29.709Z,38.00
2022-11-13T14:10:13.063Z,42.20
2022-11-13T14:12:46.868Z,35.65
2022-11-13T14:15:24.846Z,36.85
2022-11-13T14:17:51.966Z,38.60
2022-11-13T14:20:19.282Z,36.38
2022-11-13T14:22:55.115Z,34.90
2022-11-13T14:25:27.480Z,39.03
2022-11-13T14:27:54.338Z,39.03
2022-11-13T14:30:27.404Z,38.22
2022-11-13T14:32:55.377Z,38.22
2022-11-13T14:35:27.401Z,39.53
2022-11-13T14:37:55.898Z,40.15
2022-11-13T14:40:30.378Z,37.72
2022-11-13T14:43:10.272Z,34.83
2022-11-13T14:45:37.274Z,38.75
2022-11-13T14:48:17.179Z,46.05
2022-11-13T14:51:02.654Z,38.90
2022-11-13T14:53:35.377Z,38.17
2022-11-13T14:56:09.471Z,41.70
2022-11-13T14:58:47.344Z,45.67
2022-11-13T15:01:25.145Z,36.22
2022-11-13T15:03:52.726Z,44.83
2022-11-13T15:06:23.406Z,46.75
2022-11-13T15:08:57.607Z,43.25
2022-11-13T15:11:26.671Z,47.15
2022-11-13T15:13:54.099Z,43.63
2022-11-13T15:16:27.670Z,49.33
2022-11-13T15:19:01.521Z,50.47
2022-11-13T15:21:29.340Z,47.00
2022-11-13T15:23:57.126Z,46.35
2022-11-13T15:26:24.480Z,44.90
2022-11-13T15:28:51.380Z,52.38
2022-11-13T15:31:22.034Z,47.95
2022-11-13T15:33:49.202Z,49.75
2022-11-13T15:36:16.900Z,47.95
2022-11-13T15:38:44.152Z,59.33
2022-11-13T15:41:13.920Z,59.08
2022-11-13T15:43:44.470Z,54.90
2022-11-13T15:46:17.383Z,46.97
2022-11-13T15:48:45.696Z,56.50
2022-11-13T15:51:36.530Z,50.58
2022-11-13T15:54:28.325Z,53.28
2022-11-13T15:56:55.076Z,54.40
2022-11-13T15:59:21.989Z,55.08
2022-11-13T16:01:50.842Z,68.65
2022-11-13T16:04:22.154Z,68.68
2022-11-13T16:06:49.303Z,59.45
2022-11-13T16:09:16.509Z,71.35
2022-11-13T16:11:43.618Z,51.22
2022-11-13T16:14:10.411Z,55.20
2022-11-13T16:16:41.005Z,64.93
2022-11-13T16:19:19.986Z,62.95
2022-11-13T16:21:46.759Z,49.70
2022-11-13T16:24:14.051Z,53.15
2022-11-13T16:26:47.645Z,57.92
2022-11-13T16:29:19.709Z,52.17
2022-11-13T16:31:46.701Z,64.50
2022-11-13T16:34:13.959Z,68.13
2022-11-13T16:36:41.713Z,77.03
2022-11-13T16:39:15.687Z,63.42
2022-11-13T16:41:43.012Z,62.13
2022-11-13T16:44:10.233Z,64.20
2022-11-13T16:46:41.732Z,70.22
2022-11-13T16:49:16.734Z,51.03
2022-11-13T16:51:44.696Z,54.22
2022-11-13T16:54:11.485Z,59.95
2022-11-13T16:56:38.954Z,60.03
2022-11-13T16:59:05.801Z,54.63
2022-11-13T17:01:32.640Z,63.72
2022-11-13T17:03:59.442Z,58.40
2022-11-13T17:06:27.750Z,54.50
2022-11-13T17:08:57.116Z,56.30
2022-11-13T17:11:25.485Z,62.75
2022-11-13T17:14:00.582Z,62.97
2022-11-13T17:16:29.556Z,60.22
2022-11-13T17:18:56.671Z,66.15
2022-11-13T17:21:26.316Z,62.25
2022-11-13T17:23:57.880Z,81.07
2022-11-13T17:26:25.682Z,67.35
2022-11-13T17:28:53.268Z,65.28
2022-11-13T17:31:21.112Z,78.00
2022-11-13T17:33:51.991Z,71.88
2022-11-13T17:36:18.747Z,78.80
2022-11-13T17:38:45.614Z,70.78
2022-11-13T17:41:13.587Z,78.75
2022-11-13T17:43:42.116Z,71.15
2022-11-13T17:46:11.467Z,70.93
2022-11-13T17:48:39.252Z,66.45
2022-11-13T17:51:08.465Z,75.30
2022-11-13T17:53:35.318Z,81.68
2022-11-13T17:56:07.176Z,71.30
2022-11-13T17:58:42.569Z,74.82
2022-11-13T18:01:15.366Z,76.82
2022-11-13T18:03:42.482Z,79.68
2022-11-13T18:06:19.750Z,69.00
2022-11-13T18:08:47.982Z,61.80
2022-11-13T18:11:21.086Z,67.10
2022-11-13T18:13:48.799Z,54.75
2022-11-13T18:16:37.288Z,90.80
2022-11-13T18:19:06.952Z,76.03
2022-11-13T18:21:35.470Z,80.53
2022-11-13T18:24:05.193Z,65.68
2022-11-13T18:26:33.054Z,66.20
2022-11-13T18:29:00.986Z,63.83
2022-11-13T18:31:28.272Z,66.93
2022-11-13T18:33:57.741Z,75.10
2022-11-13T18:36:24.535Z,78.55
2022-11-13T18:38:51.311Z,92.63
2022-11-13T18:41:21.449Z,88.47
2022-11-13T18:43:49.894Z,88.75
2022-11-13T18:46:19.536Z,127.38
2022-11-13T18:48:47.502Z,148.07
2022-11-13T18:51:19.967Z,147.23
2022-11-13T18:53:50.812Z,129.18
2022-11-13T18:56:20.859Z,114.85
2022-11-13T18:58:49.271Z,110.72
2022-11-13T19:01:21.827Z,222.30
2022-11-13T19:04:16.097Z,141.10
2022-11-13T19:06:38.796Z,109.47
2022-11-13T19:09:10.075Z,114.03
2022-11-13T19:11:38.426Z,95.38
2022-11-13T19:14:06.258Z,89.53
2022-11-13T19:16:36.223Z,100.22
2022-11-13T19:19:08.927Z,110.60
2022-11-13T19:21:36.761Z,99.13
2022-11-13T19:24:04.192Z,261.45
2022-11-13T19:26:31.366Z,113.70
2022-11-13T19:28:58.436Z,79.15
2022-11-13T19:31:27.441Z,74.78
2022-11-13T19:34:00.264Z,77.75
2022-11-13T19:36:29.212Z,70.13
2022-11-13T19:38:56.695Z,71.60
2022-11-13T19:41:27.039Z,66.90
2022-11-13T19:43:54.009Z,65.57
2022-11-13T19:46:21.057Z,57.65
2022-11-13T19:48:49.056Z,103.22
2022-11-13T19:51:19.521Z,58.42
2022-11-13T19:53:47.346Z,53.95
2022-11-13T19:56:16.219Z,53.88
2022-11-13T19:58:44.368Z,55.10
2022-11-13T20:01:13.075Z,49.75
2022-11-13T20:03:40.608Z,51.55
2022-11-13T20:06:08.149Z,54.28
2022-11-13T20:08:36.107Z,61.10
2022-11-13T20:11:10.162Z,61.97
2022-11-13T20:13:39.041Z,48.63
2022-11-13T20:16:06.955Z,55.20
2022-11-13T20:18:33.916Z,60.45
2022-11-13T20:21:00.979Z,49.55
2022-11-13T20:23:27.897Z,62.30
2022-11-13T20:26:00.211Z,54.30
2022-11-13T20:28:30.952Z,65.82
2022-11-13T20:31:12.698Z,50.65
2022-11-13T20:33:39.491Z,50.75
2022-11-13T20:36:06.602Z,52.53
2022-11-13T20:38:33.437Z,47.70
2022-11-13T20:41:07.281Z,72.05
2022-11-13T20:43:34.418Z,62.17
2022-11-13T20:46:10.542Z,47.28
2022-11-13T20:48:37.542Z,51.90
2022-11-13T20:51:21.964Z,52.40
2022-11-13T20:53:49.755Z,61.10
2022-11-13T20:56:18.131Z,64.03
2022-11-13T20:58:45.293Z,66.35
2022-11-13T21:01:15.417Z,54.13
2022-11-13T21:03:44.191Z,51.95
2022-11-13T21:06:13.906Z,55.35
2022-11-13T21:08:40.878Z,62.42
2022-11-13T21:11:12.050Z,61.70
2022-11-13T21:13:39.239Z,67.53
2022-11-13T21:16:08.266Z,53.67
2022-11-13T21:18:35.512Z,68.15
2022-11-13T21:21:11.903Z,65.68
2022-11-13T21:23:38.829Z,57.10
2022-11-13T21:26:07.459Z,59.65
2022-11-13T21:28:34.983Z,57.00
2022-11-13T21:31:13.761Z,57.65
2022-11-13T21:33:41.796Z,58.85
2022-11-13T21:36:19.251Z,58.58
2022-11-13T21:38:48.864Z,53.58
2022-11-13T21:41:22.035Z,54.22
2022-11-13T21:44:04.627Z,61.53
2022-11-13T21:46:37.597Z,52.63
2022-11-13T21:49:07.708Z,62.65
2022-11-13T21:51:36.202Z,50.53
2022-11-13T21:54:03.946Z,62.30
2022-11-13T21:56:32.833Z,54.08
2022-11-13T21:59:00.246Z,70.43
2022-11-13T22:01:27.609Z,72.57
2022-11-13T22:03:54.946Z,93.63
2022-11-13T22:06:31.270Z,83.95
2022-11-13T22:09:00.923Z,74.50
2022-11-13T22:11:31.131Z,109.00
2022-11-13T22:13:59.182Z,78.93
2022-11-13T22:16:27.890Z,81.63
2022-11-13T22:18:56.137Z,86.60
2022-11-13T22:21:24.389Z,106.85
2022-11-13T22:23:51.249Z,79.22
2022-11-13T22:26:19.052Z,75.20
2022-11-13T22:28:47.504Z,73.78
2022-11-13T22:31:19.592Z,72.18
2022-11-13T22:33:48.914Z,73.90
2022-11-13T22:36:39.027Z,82.93
2022-11-13T22:39:06.594Z,70.60
2022-11-13T22:41:35.361Z,80.43
2022-11-13T22:44:05.562Z,80.18
2022-11-13T22:46:34.943Z,68.75
2022-11-13T22:49:03.725Z,81.82
2022-11-13T22:51:40.364Z,71.18
2022-11-13T22:54:09.779Z,69.32
2022-11-13T22:56:38.329Z,71.57
2022-11-13T22:59:06.983Z,61.42
2022-11-13T23:01:37.982Z,62.58
2022-11-13T23:04:07.985Z,59.10
2022-11-13T23:06:35.837Z,52.03
2022-11-13T23:09:04.082Z,49.20
2022-11-13T23:11:34.090Z,51.25
2022-11-13T23:14:03.710Z,50.95
2022-11-13T23:16:32.251Z,56.30
2022-11-13T23:19:00.292Z,58.72
2022-11-13T23:21:28.183Z,57.28
2022-11-13T23:23:56.480Z,52.17
2022-11-13T23:26:24.160Z,59.40
2022-11-13T23:28:53.801Z,49.33
2022-11-13T23:31:21.395Z,58.25
2022-11-13T23:33:48.859Z,56.95
2022-11-13T23:36:18.127Z,59.35
2022-11-13T23:38:45.484Z,63.00
2022-11-13T23:41:12.466Z,61.58
2022-11-13T23:44:08.167Z,53.05
2022-11-13T23:46:26.072Z,53.65
2022-11-13T23:48:52.955Z,54.97
2022-11-13T23:51:19.811Z,53.15
2022-11-13T23:53:46.604Z,54.45
2022-11-13T23:56:13.401Z,48.03
2022-11-13T23:58:43.266Z,54.40
